sensor_id;sensor_type;location;lat;lon;timestamp;temperature;humidity
33023;DHT22;19390;51.460;5.710;2024-03-29T00:00:41;8.60;1.00
33023;DHT22;19390;51.460;5.710;2024-03-29T00:03:10;8.70;99.90
33023;DHT22;19390;51.460;5.710;2024-03-29T00:05:36;8.70;99.90
33023;DHT22;19390;51.460;5.710;2024-03-29T00:08:03;8.60;1.00
33023;DHT22;19390;51.460;5.710;2024-03-29T00:10:28;8.60;1.00
33023;DHT22;19390;51.460;5.710;2024-03-29T00:12:54;8.50;1.00
33023;DHT22;19390;51.460;5.710;2024-03-29T00:15:20;8.50;1.00
33023;DHT22;19390;51.460;5.710;2024-03-29T00:17:45;8.40;1.00
33023;DHT22;19390;51.460;5.710;2024-03-29T00:20:11;8.50;1.00
33023;DHT22;19390;51.460;5.710;2024-03-29T00:22:37;8.40;1.00
33023;DHT22;19390;51.460;5.710;2024-03-29T00:25:03;8.50;1.00
33023;DHT22;19390;51.460;5.710;2024-03-29T00:27:29;8.40;99.90
33023;DHT22;19390;51.460;5.710;2024-03-29T00:29:55;8.30;1.00
33023;DHT22;19390;51.460;5.710;2024-03-29T00:32:21;8.30;1.00
33023;DHT22;19390;51.460;5.710;2024-03-29T00:34:50;8.30;1.00
33023;DHT22;19390;51.460;5.710;2024-03-29T00:37:16;8.30;1.00
33023;DHT22;19390;51.460;5.710;2024-03-29T00:39:43;8.30;34.30
33023;DHT22;19390;51.460;5.710;2024-03-29T00:42:08;8.20;99.90
33023;DHT22;19390;51.460;5.710;2024-03-29T00:44:35;8.20;99.90
33023;DHT22;19390;51.460;5.710;2024-03-29T00:47:03;8.20;1.00
33023;DHT22;19390;51.460;5.710;2024-03-29T00:49:29;8.20;1.00
33023;DHT22;19390;51.460;5.710;2024-03-29T00:51:55;8.20;1.00
33023;DHT22;19390;51.460;5.710;2024-03-29T00:54:21;8.20;1.00
33023;DHT22;19390;51.460;5.710;2024-03-29T00:56:46;8.20;1.00
33023;DHT22;19390;51.460;5.710;2024-03-29T00:59:12;8.30;1.00
33023;DHT22;19390;51.460;5.710;2024-03-29T01:01:37;8.30;1.00
33023;DHT22;19390;51.460;5.710;2024-03-29T01:04:04;8.40;1.00
33023;DHT22;19390;51.460;5.710;2024-03-29T01:06:29;8.40;1.00
33023;DHT22;19390;51.460;5.710;2024-03-29T01:08:55;8.40;1.00
33023;DHT22;19390;51.460;5.710;2024-03-29T01:11:20;8.40;1.00
33023;DHT22;19390;51.460;5.710;2024-03-29T01:13:46;8.30;1.00
33023;DHT22;19390;51.460;5.710;2024-03-29T01:16:11;8.40;1.00
33023;DHT22;19390;51.460;5.710;2024-03-29T01:18:37;8.30;99.90
33023;DHT22;19390;51.460;5.710;2024-03-29T01:21:03;8.30;99.90
33023;DHT22;19390;51.460;5.710;2024-03-29T01:23:28;8.20;99.90
33023;DHT22;19390;51.460;5.710;2024-03-29T01:25:54;8.20;99.90
33023;DHT22;19390;51.460;5.710;2024-03-29T01:28:19;8.30;99.90
33023;DHT22;19390;51.460;5.710;2024-03-29T01:30:52;8.40;35.50
33023;DHT22;19390;51.460;5.710;2024-03-29T01:33:18;8.30;99.90
33023;DHT22;19390;51.460;5.710;2024-03-29T01:35:43;8.40;99.90
33023;DHT22;19390;51.460;5.710;2024-03-29T01:38:09;8.40;99.90
33023;DHT22;19390;51.460;5.710;2024-03-29T01:40:35;8.30;99.90
33023;DHT22;19390;51.460;5.710;2024-03-29T01:43:01;8.40;99.90
33023;DHT22;19390;51.460;5.710;2024-03-29T01:45:27;8.40;99.90
33023;DHT22;19390;51.460;5.710;2024-03-29T01:47:53;8.40;89.50
33023;DHT22;19390;51.460;5.710;2024-03-29T01:50:19;8.40;99.90
33023;DHT22;19390;51.460;5.710;2024-03-29T01:52:44;8.40;99.90
33023;DHT22;19390;51.460;5.710;2024-03-29T01:55:10;8.50;99.90
33023;DHT22;19390;51.460;5.710;2024-03-29T01:57:36;8.40;1.00
33023;DHT22;19390;51.460;5.710;2024-03-29T02:00:02;8.40;1.00
33023;DHT22;19390;51.460;5.710;2024-03-29T02:02:31;8.40;1.00
33023;DHT22;19390;51.460;5.710;2024-03-29T02:04:57;8.50;1.00
33023;DHT22;19390;51.460;5.710;2024-03-29T02:07:24;8.60;99.90
33023;DHT22;19390;51.460;5.710;2024-03-29T02:09:50;8.60;44.80
33023;DHT22;19390;51.460;5.710;2024-03-29T02:12:16;8.60;99.90
33023;DHT22;19390;51.460;5.710;2024-03-29T02:14:41;8.70;1.00
33023;DHT22;19390;51.460;5.710;2024-03-29T02:17:08;8.80;1.00
33023;DHT22;19390;51.460;5.710;2024-03-29T02:19:34;8.80;1.00
33023;DHT22;19390;51.460;5.710;2024-03-29T02:22:00;8.80;1.00
33023;DHT22;19390;51.460;5.710;2024-03-29T02:24:27;8.90;99.90
33023;DHT22;19390;51.460;5.710;2024-03-29T02:26:55;8.90;1.00
33023;DHT22;19390;51.460;5.710;2024-03-29T02:29:21;9.00;69.60
33023;DHT22;19390;51.460;5.710;2024-03-29T02:31:47;9.00;1.00
33023;DHT22;19390;51.460;5.710;2024-03-29T02:34:12;9.00;1.00
33023;DHT22;19390;51.460;5.710;2024-03-29T02:36:38;9.00;1.00
33023;DHT22;19390;51.460;5.710;2024-03-29T02:39:04;9.10;1.00
33023;DHT22;19390;51.460;5.710;2024-03-29T02:41:30;9.10;1.00
33023;DHT22;19390;51.460;5.710;2024-03-29T02:43:56;9.20;1.00
33023;DHT22;19390;51.460;5.710;2024-03-29T02:46:22;9.20;99.90
33023;DHT22;19390;51.460;5.710;2024-03-29T02:48:47;9.10;1.00
33023;DHT22;19390;51.460;5.710;2024-03-29T02:51:13;9.20;1.00
33023;DHT22;19390;51.460;5.710;2024-03-29T02:53:39;9.20;1.00
33023;DHT22;19390;51.460;5.710;2024-03-29T02:56:05;9.20;1.00
33023;DHT22;19390;51.460;5.710;2024-03-29T02:58:34;9.30;99.90
33023;DHT22;19390;51.460;5.710;2024-03-29T03:01:08;9.30;99.90
33023;DHT22;19390;51.460;5.710;2024-03-29T03:03:35;9.20;1.00
33023;DHT22;19390;51.460;5.710;2024-03-29T03:06:01;9.30;99.90
33023;DHT22;19390;51.460;5.710;2024-03-29T03:08:28;9.40;1.00
33023;DHT22;19390;51.460;5.710;2024-03-29T03:11:13;9.40;99.90
33023;DHT22;19390;51.460;5.710;2024-03-29T03:13:39;9.30;1.00
33023;DHT22;19390;51.460;5.710;2024-03-29T03:16:04;9.20;1.00
33023;DHT22;19390;51.460;5.710;2024-03-29T03:18:30;9.30;1.00
33023;DHT22;19390;51.460;5.710;2024-03-29T03:20:56;9.30;1.00
33023;DHT22;19390;51.460;5.710;2024-03-29T03:23:25;9.30;1.00
33023;DHT22;19390;51.460;5.710;2024-03-29T03:26:09;9.30;1.00
33023;DHT22;19390;51.460;5.710;2024-03-29T03:28:34;9.30;1.00
33023;DHT22;19390;51.460;5.710;2024-03-29T03:31:01;9.30;1.00
33023;DHT22;19390;51.460;5.710;2024-03-29T03:33:26;9.30;99.90
33023;DHT22;19390;51.460;5.710;2024-03-29T03:35:52;9.40;1.00
33023;DHT22;19390;51.460;5.710;2024-03-29T03:38:18;9.40;1.00
33023;DHT22;19390;51.460;5.710;2024-03-29T03:40:43;9.40;1.00
33023;DHT22;19390;51.460;5.710;2024-03-29T03:43:09;9.30;1.00
33023;DHT22;19390;51.460;5.710;2024-03-29T03:45:36;9.30;1.00
33023;DHT22;19390;51.460;5.710;2024-03-29T03:48:03;9.20;1.00
33023;DHT22;19390;51.460;5.710;2024-03-29T03:50:29;9.10;99.90
33023;DHT22;19390;51.460;5.710;2024-03-29T03:52:54;9.00;99.90
33023;DHT22;19390;51.460;5.710;2024-03-29T03:55:20;8.80;99.90
33023;DHT22;19390;51.460;5.710;2024-03-29T03:57:46;8.60;99.90
33023;DHT22;19390;51.460;5.710;2024-03-29T04:00:12;8.50;99.90
33023;DHT22;19390;51.460;5.710;2024-03-29T04:02:37;8.50;99.90
33023;DHT22;19390;51.460;5.710;2024-03-29T04:05:03;8.50;99.90
33023;DHT22;19390;51.460;5.710;2024-03-29T04:07:29;8.40;99.90
33023;DHT22;19390;51.460;5.710;2024-03-29T04:09:54;8.30;99.90
33023;DHT22;19390;51.460;5.710;2024-03-29T04:12:20;8.20;99.90
33023;DHT22;19390;51.460;5.710;2024-03-29T04:14:46;8.10;99.90
33023;DHT22;19390;51.460;5.710;2024-03-29T04:17:11;8.00;99.90
33023;DHT22;19390;51.460;5.710;2024-03-29T04:19:37;8.10;99.90
33023;DHT22;19390;51.460;5.710;2024-03-29T04:22:03;8.10;99.90
33023;DHT22;19390;51.460;5.710;2024-03-29T04:24:29;8.00;99.90
33023;DHT22;19390;51.460;5.710;2024-03-29T04:26:54;8.00;99.90
33023;DHT22;19390;51.460;5.710;2024-03-29T04:29:20;7.90;99.90
33023;DHT22;19390;51.460;5.710;2024-03-29T04:31:46;7.80;99.90
33023;DHT22;19390;51.460;5.710;2024-03-29T04:34:11;7.80;99.90
33023;DHT22;19390;51.460;5.710;2024-03-29T04:36:37;7.80;99.90
33023;DHT22;19390;51.460;5.710;2024-03-29T04:39:04;7.70;99.90
33023;DHT22;19390;51.460;5.710;2024-03-29T04:41:29;7.70;99.90
33023;DHT22;19390;51.460;5.710;2024-03-29T04:44:02;7.70;99.90
33023;DHT22;19390;51.460;5.710;2024-03-29T04:46:32;7.70;99.90
33023;DHT22;19390;51.460;5.710;2024-03-29T04:48:58;7.70;99.90
33023;DHT22;19390;51.460;5.710;2024-03-29T04:51:23;7.60;99.90
33023;DHT22;19390;51.460;5.710;2024-03-29T04:53:49;7.60;99.90
33023;DHT22;19390;51.460;5.710;2024-03-29T04:56:15;7.60;99.90
33023;DHT22;19390;51.460;5.710;2024-03-29T04:58:40;7.60;99.90
33023;DHT22;19390;51.460;5.710;2024-03-29T05:01:07;7.60;99.90
33023;DHT22;19390;51.460;5.710;2024-03-29T05:03:32;7.60;99.90
33023;DHT22;19390;51.460;5.710;2024-03-29T05:05:58;7.60;99.90
33023;DHT22;19390;51.460;5.710;2024-03-29T05:08:24;7.60;99.90
33023;DHT22;19390;51.460;5.710;2024-03-29T05:10:50;7.60;99.90
33023;DHT22;19390;51.460;5.710;2024-03-29T05:13:16;7.50;99.90
33023;DHT22;19390;51.460;5.710;2024-03-29T05:15:42;7.50;99.90
33023;DHT22;19390;51.460;5.710;2024-03-29T05:18:08;7.50;99.90
33023;DHT22;19390;51.460;5.710;2024-03-29T05:20:34;7.60;99.90
33023;DHT22;19390;51.460;5.710;2024-03-29T05:23:00;7.60;99.90
33023;DHT22;19390;51.460;5.710;2024-03-29T05:25:26;7.60;99.90
33023;DHT22;19390;51.460;5.710;2024-03-29T05:27:52;7.50;99.90
33023;DHT22;19390;51.460;5.710;2024-03-29T05:30:18;7.50;99.90
33023;DHT22;19390;51.460;5.710;2024-03-29T05:32:44;7.50;99.90
33023;DHT22;19390;51.460;5.710;2024-03-29T05:35:10;7.50;99.90
33023;DHT22;19390;51.460;5.710;2024-03-29T05:37:36;7.50;99.90
33023;DHT22;19390;51.460;5.710;2024-03-29T05:40:02;7.50;99.90
33023;DHT22;19390;51.460;5.710;2024-03-29T05:42:31;7.60;99.90
33023;DHT22;19390;51.460;5.710;2024-03-29T05:44:57;7.60;99.90
33023;DHT22;19390;51.460;5.710;2024-03-29T05:47:23;7.60;99.90
33023;DHT22;19390;51.460;5.710;2024-03-29T05:49:49;7.60;99.90
33023;DHT22;19390;51.460;5.710;2024-03-29T05:52:15;7.50;99.90
33023;DHT22;19390;51.460;5.710;2024-03-29T05:54:44;7.60;99.90
33023;DHT22;19390;51.460;5.710;2024-03-29T05:57:10;7.60;99.90
33023;DHT22;19390;51.460;5.710;2024-03-29T05:59:36;7.70;99.90
33023;DHT22;19390;51.460;5.710;2024-03-29T06:02:02;7.60;99.90
33023;DHT22;19390;51.460;5.710;2024-03-29T06:04:28;7.60;99.90
33023;DHT22;19390;51.460;5.710;2024-03-29T06:07:03;7.60;99.90
33023;DHT22;19390;51.460;5.710;2024-03-29T06:09:29;7.70;99.90
33023;DHT22;19390;51.460;5.710;2024-03-29T06:11:55;7.60;99.90
33023;DHT22;19390;51.460;5.710;2024-03-29T06:14:25;7.60;99.90
33023;DHT22;19390;51.460;5.710;2024-03-29T06:17:10;7.50;99.90
33023;DHT22;19390;51.460;5.710;2024-03-29T06:19:51;7.60;99.90
33023;DHT22;19390;51.460;5.710;2024-03-29T06:22:19;7.60;99.90
33023;DHT22;19390;51.460;5.710;2024-03-29T06:24:45;7.70;99.90
33023;DHT22;19390;51.460;5.710;2024-03-29T06:27:12;7.60;99.90
33023;DHT22;19390;51.460;5.710;2024-03-29T06:29:38;7.70;99.90
33023;DHT22;19390;51.460;5.710;2024-03-29T06:32:04;7.80;99.90
33023;DHT22;19390;51.460;5.710;2024-03-29T06:34:32;7.90;99.90
33023;DHT22;19390;51.460;5.710;2024-03-29T06:36:58;7.90;99.90
33023;DHT22;19390;51.460;5.710;2024-03-29T06:39:24;7.90;99.90
33023;DHT22;19390;51.460;5.710;2024-03-29T06:41:51;7.90;99.90
33023;DHT22;19390;51.460;5.710;2024-03-29T06:44:17;7.80;99.90
33023;DHT22;19390;51.460;5.710;2024-03-29T06:46:42;7.80;99.90
33023;DHT22;19390;51.460;5.710;2024-03-29T06:49:08;7.80;99.90
33023;DHT22;19390;51.460;5.710;2024-03-29T06:51:34;7.80;99.90
33023;DHT22;19390;51.460;5.710;2024-03-29T06:53:59;7.80;99.90
33023;DHT22;19390;51.460;5.710;2024-03-29T06:56:25;7.90;99.90
33023;DHT22;19390;51.460;5.710;2024-03-29T06:58:50;8.00;99.90
33023;DHT22;19390;51.460;5.710;2024-03-29T07:01:16;8.00;99.90
33023;DHT22;19390;51.460;5.710;2024-03-29T07:03:41;7.90;99.90
33023;DHT22;19390;51.460;5.710;2024-03-29T07:06:07;8.00;99.90
33023;DHT22;19390;51.460;5.710;2024-03-29T07:08:33;8.20;99.90
33023;DHT22;19390;51.460;5.710;2024-03-29T07:11:01;8.20;99.90
33023;DHT22;19390;51.460;5.710;2024-03-29T07:13:29;8.20;99.90
33023;DHT22;19390;51.460;5.710;2024-03-29T07:15:55;8.20;99.90
33023;DHT22;19390;51.460;5.710;2024-03-29T07:18:21;8.20;99.90
33023;DHT22;19390;51.460;5.710;2024-03-29T07:20:46;8.30;99.90
33023;DHT22;19390;51.460;5.710;2024-03-29T07:23:12;8.40;99.90
33023;DHT22;19390;51.460;5.710;2024-03-29T07:25:39;8.50;99.90
33023;DHT22;19390;51.460;5.710;2024-03-29T07:28:05;8.60;99.90
33023;DHT22;19390;51.460;5.710;2024-03-29T07:30:31;8.90;99.90
33023;DHT22;19390;51.460;5.710;2024-03-29T07:32:56;9.00;99.90
33023;DHT22;19390;51.460;5.710;2024-03-29T07:35:22;9.00;99.90
33023;DHT22;19390;51.460;5.710;2024-03-29T07:37:48;9.20;99.90
33023;DHT22;19390;51.460;5.710;2024-03-29T07:40:16;9.20;99.90
33023;DHT22;19390;51.460;5.710;2024-03-29T07:42:41;9.60;99.90
33023;DHT22;19390;51.460;5.710;2024-03-29T07:45:07;10.30;99.90
33023;DHT22;19390;51.460;5.710;2024-03-29T07:47:33;11.10;99.90
33023;DHT22;19390;51.460;5.710;2024-03-29T07:49:59;11.10;99.90
33023;DHT22;19390;51.460;5.710;2024-03-29T07:52:24;11.30;99.90
33023;DHT22;19390;51.460;5.710;2024-03-29T07:54:50;11.30;99.90
33023;DHT22;19390;51.460;5.710;2024-03-29T07:57:16;11.10;99.90
33023;DHT22;19390;51.460;5.710;2024-03-29T07:59:42;11.10;99.90
33023;DHT22;19390;51.460;5.710;2024-03-29T08:02:08;11.00;99.90
33023;DHT22;19390;51.460;5.710;2024-03-29T08:04:34;10.60;99.90
33023;DHT22;19390;51.460;5.710;2024-03-29T08:07:00;10.80;99.90
33023;DHT22;19390;51.460;5.710;2024-03-29T08:09:25;10.90;99.90
33023;DHT22;19390;51.460;5.710;2024-03-29T08:11:51;10.90;99.90
33023;DHT22;19390;51.460;5.710;2024-03-29T08:14:17;10.50;99.90
33023;DHT22;19390;51.460;5.710;2024-03-29T08:16:42;10.60;99.90
33023;DHT22;19390;51.460;5.710;2024-03-29T08:19:08;10.40;99.90
33023;DHT22;19390;51.460;5.710;2024-03-29T08:21:34;10.20;99.90
33023;DHT22;19390;51.460;5.710;2024-03-29T08:24:00;9.90;99.90
33023;DHT22;19390;51.460;5.710;2024-03-29T08:26:27;9.80;99.90
33023;DHT22;19390;51.460;5.710;2024-03-29T08:28:54;10.00;99.90
33023;DHT22;19390;51.460;5.710;2024-03-29T08:31:19;10.10;99.90
33023;DHT22;19390;51.460;5.710;2024-03-29T08:33:45;10.20;99.90
33023;DHT22;19390;51.460;5.710;2024-03-29T08:36:11;10.10;99.90
33023;DHT22;19390;51.460;5.710;2024-03-29T08:38:37;10.00;99.90
33023;DHT22;19390;51.460;5.710;2024-03-29T08:41:06;9.90;99.90
33023;DHT22;19390;51.460;5.710;2024-03-29T08:43:33;10.00;99.90
33023;DHT22;19390;51.460;5.710;2024-03-29T08:45:58;10.00;99.90
33023;DHT22;19390;51.460;5.710;2024-03-29T08:48:24;10.10;99.90
33023;DHT22;19390;51.460;5.710;2024-03-29T08:50:53;10.20;99.90
33023;DHT22;19390;51.460;5.710;2024-03-29T08:53:18;10.10;99.90
33023;DHT22;19390;51.460;5.710;2024-03-29T08:55:46;10.20;99.90
33023;DHT22;19390;51.460;5.710;2024-03-29T08:58:12;10.40;99.90
33023;DHT22;19390;51.460;5.710;2024-03-29T09:00:38;10.40;99.90
33023;DHT22;19390;51.460;5.710;2024-03-29T09:03:03;10.40;99.90
33023;DHT22;19390;51.460;5.710;2024-03-29T09:05:29;10.30;99.90
33023;DHT22;19390;51.460;5.710;2024-03-29T09:07:55;10.30;99.90
33023;DHT22;19390;51.460;5.710;2024-03-29T09:10:25;10.30;99.90
33023;DHT22;19390;51.460;5.710;2024-03-29T09:12:52;10.30;99.90
33023;DHT22;19390;51.460;5.710;2024-03-29T09:15:17;10.30;99.90
33023;DHT22;19390;51.460;5.710;2024-03-29T09:17:44;10.30;99.90
33023;DHT22;19390;51.460;5.710;2024-03-29T09:20:10;10.30;99.90
33023;DHT22;19390;51.460;5.710;2024-03-29T09:22:36;10.30;99.90
33023;DHT22;19390;51.460;5.710;2024-03-29T09:25:03;10.40;99.90
33023;DHT22;19390;51.460;5.710;2024-03-29T09:27:28;10.50;99.90
33023;DHT22;19390;51.460;5.710;2024-03-29T09:29:55;10.60;99.90
33023;DHT22;19390;51.460;5.710;2024-03-29T09:32:23;10.70;99.90
33023;DHT22;19390;51.460;5.710;2024-03-29T09:34:49;10.70;99.90
33023;DHT22;19390;51.460;5.710;2024-03-29T09:37:15;10.80;99.90
33023;DHT22;19390;51.460;5.710;2024-03-29T09:39:40;11.10;99.90
33023;DHT22;19390;51.460;5.710;2024-03-29T09:42:06;11.20;99.90
33023;DHT22;19390;51.460;5.710;2024-03-29T09:44:34;11.50;99.90
33023;DHT22;19390;51.460;5.710;2024-03-29T09:47:03;12.50;99.90
33023;DHT22;19390;51.460;5.710;2024-03-29T09:49:32;13.30;99.90
33023;DHT22;19390;51.460;5.710;2024-03-29T09:52:01;14.10;99.90
33023;DHT22;19390;51.460;5.710;2024-03-29T09:54:30;15.00;99.90
33023;DHT22;19390;51.460;5.710;2024-03-29T09:56:57;15.70;99.90
33023;DHT22;19390;51.460;5.710;2024-03-29T09:59:23;15.30;1.00
33023;DHT22;19390;51.460;5.710;2024-03-29T10:01:50;14.40;1.00
33023;DHT22;19390;51.460;5.710;2024-03-29T10:04:18;14.30;99.90
33023;DHT22;19390;51.460;5.710;2024-03-29T10:06:46;14.20;99.90
33023;DHT22;19390;51.460;5.710;2024-03-29T10:09:17;14.40;99.90
33023;DHT22;19390;51.460;5.710;2024-03-29T10:11:44;13.50;99.90
33023;DHT22;19390;51.460;5.710;2024-03-29T10:14:10;13.80;99.90
33023;DHT22;19390;51.460;5.710;2024-03-29T10:16:35;14.10;99.90
33023;DHT22;19390;51.460;5.710;2024-03-29T10:19:01;14.30;42.40
33023;DHT22;19390;51.460;5.710;2024-03-29T10:21:27;15.20;1.00
33023;DHT22;19390;51.460;5.710;2024-03-29T10:23:53;15.20;59.70
33023;DHT22;19390;51.460;5.710;2024-03-29T10:26:19;14.80;1.00
33023;DHT22;19390;51.460;5.710;2024-03-29T10:28:47;15.70;99.90
33023;DHT22;19390;51.460;5.710;2024-03-29T10:31:13;15.30;99.90
33023;DHT22;19390;51.460;5.710;2024-03-29T10:33:42;15.80;1.00
33023;DHT22;19390;51.460;5.710;2024-03-29T10:36:08;15.50;1.00
33023;DHT22;19390;51.460;5.710;2024-03-29T10:38:35;14.90;99.90
33023;DHT22;19390;51.460;5.710;2024-03-29T10:41:01;15.00;1.00
33023;DHT22;19390;51.460;5.710;2024-03-29T10:43:29;14.90;1.00
33023;DHT22;19390;51.460;5.710;2024-03-29T10:45:55;14.10;1.00
33023;DHT22;19390;51.460;5.710;2024-03-29T10:48:25;13.80;1.00
33023;DHT22;19390;51.460;5.710;2024-03-29T10:50:54;14.10;99.90
33023;DHT22;19390;51.460;5.710;2024-03-29T10:53:22;14.70;1.00
33023;DHT22;19390;51.460;5.710;2024-03-29T10:55:50;15.30;1.00
33023;DHT22;19390;51.460;5.710;2024-03-29T10:58:17;16.50;1.00
33023;DHT22;19390;51.460;5.710;2024-03-29T11:00:47;16.60;99.90
33023;DHT22;19390;51.460;5.710;2024-03-29T11:03:35;15.90;99.90
33023;DHT22;19390;51.460;5.710;2024-03-29T11:06:03;15.20;99.90
33023;DHT22;19390;51.460;5.710;2024-03-29T11:08:33;15.10;1.00
33023;DHT22;19390;51.460;5.710;2024-03-29T11:11:04;15.80;99.90
33023;DHT22;19390;51.460;5.710;2024-03-29T11:16:08;14.70;1.00
33023;DHT22;19390;51.460;5.710;2024-03-29T11:18:35;14.50;1.00
33023;DHT22;19390;51.460;5.710;2024-03-29T11:21:02;14.70;1.00
33023;DHT22;19390;51.460;5.710;2024-03-29T11:23:31;14.60;1.00
33023;DHT22;19390;51.460;5.710;2024-03-29T11:25:58;14.70;1.00
33023;DHT22;19390;51.460;5.710;2024-03-29T11:28:33;15.70;1.00
33023;DHT22;19390;51.460;5.710;2024-03-29T11:36:23;16.30;99.90
33023;DHT22;19390;51.460;5.710;2024-03-29T11:38:54;15.20;99.90
33023;DHT22;19390;51.460;5.710;2024-03-29T11:41:24;14.70;99.90
33023;DHT22;19390;51.460;5.710;2024-03-29T11:43:51;14.40;99.90
33023;DHT22;19390;51.460;5.710;2024-03-29T11:46:17;14.40;99.90
33023;DHT22;19390;51.460;5.710;2024-03-29T11:48:43;15.20;1.00
33023;DHT22;19390;51.460;5.710;2024-03-29T11:51:16;16.80;99.90
33023;DHT22;19390;51.460;5.710;2024-03-29T11:53:44;18.10;99.90
33023;DHT22;19390;51.460;5.710;2024-03-29T11:56:10;18.00;99.90
33023;DHT22;19390;51.460;5.710;2024-03-29T11:58:40;17.70;99.90
33023;DHT22;19390;51.460;5.710;2024-03-29T12:01:07;17.40;99.90
33023;DHT22;19390;51.460;5.710;2024-03-29T12:03:38;18.30;99.90
33023;DHT22;19390;51.460;5.710;2024-03-29T12:06:04;17.80;99.90
33023;DHT22;19390;51.460;5.710;2024-03-29T12:08:33;17.10;99.90
33023;DHT22;19390;51.460;5.710;2024-03-29T12:10:59;17.70;99.90
33023;DHT22;19390;51.460;5.710;2024-03-29T12:13:25;17.50;99.90
33023;DHT22;19390;51.460;5.710;2024-03-29T12:15:51;17.10;99.90
33023;DHT22;19390;51.460;5.710;2024-03-29T12:18:20;16.70;99.90
33023;DHT22;19390;51.460;5.710;2024-03-29T12:20:46;17.10;99.90
33023;DHT22;19390;51.460;5.710;2024-03-29T12:23:19;16.60;99.90
33023;DHT22;19390;51.460;5.710;2024-03-29T12:25:45;16.70;99.90
33023;DHT22;19390;51.460;5.710;2024-03-29T12:28:12;17.00;99.90
33023;DHT22;19390;51.460;5.710;2024-03-29T12:30:46;16.50;99.90
33023;DHT22;19390;51.460;5.710;2024-03-29T12:33:16;16.00;99.90
33023;DHT22;19390;51.460;5.710;2024-03-29T12:35:42;15.70;99.90
33023;DHT22;19390;51.460;5.710;2024-03-29T12:38:14;16.40;99.90
33023;DHT22;19390;51.460;5.710;2024-03-29T12:40:41;18.30;99.90
33023;DHT22;19390;51.460;5.710;2024-03-29T12:43:09;19.50;99.90
33023;DHT22;19390;51.460;5.710;2024-03-29T12:45:36;19.20;99.90
33023;DHT22;19390;51.460;5.710;2024-03-29T12:48:02;18.00;99.90
33023;DHT22;19390;51.460;5.710;2024-03-29T12:50:31;17.50;99.90
33023;DHT22;19390;51.460;5.710;2024-03-29T12:52:59;18.60;99.90
33023;DHT22;19390;51.460;5.710;2024-03-29T12:55:26;20.00;99.90
33023;DHT22;19390;51.460;5.710;2024-03-29T12:58:04;19.10;99.90
33023;DHT22;19390;51.460;5.710;2024-03-29T13:00:31;18.30;99.90
33023;DHT22;19390;51.460;5.710;2024-03-29T13:02:56;18.70;99.90
33023;DHT22;19390;51.460;5.710;2024-03-29T13:05:23;19.50;99.90
33023;DHT22;19390;51.460;5.710;2024-03-29T13:07:48;19.40;99.90
33023;DHT22;19390;51.460;5.710;2024-03-29T13:10:14;18.80;99.90
33023;DHT22;19390;51.460;5.710;2024-03-29T13:12:47;18.10;99.90
33023;DHT22;19390;51.460;5.710;2024-03-29T13:15:27;17.10;99.90
33023;DHT22;19390;51.460;5.710;2024-03-29T13:17:55;17.60;99.90
33023;DHT22;19390;51.460;5.710;2024-03-29T13:20:22;18.50;99.90
33023;DHT22;19390;51.460;5.710;2024-03-29T13:22:49;19.00;99.90
33023;DHT22;19390;51.460;5.710;2024-03-29T13:25:21;19.50;99.90
33023;DHT22;19390;51.460;5.710;2024-03-29T13:27:49;18.60;99.90
33023;DHT22;19390;51.460;5.710;2024-03-29T13:30:19;19.50;99.90
33023;DHT22;19390;51.460;5.710;2024-03-29T13:32:45;18.90;99.90
33023;DHT22;19390;51.460;5.710;2024-03-29T13:35:11;17.70;99.90
33023;DHT22;19390;51.460;5.710;2024-03-29T13:37:38;17.00;99.90
33023;DHT22;19390;51.460;5.710;2024-03-29T13:40:07;16.70;99.90
33023;DHT22;19390;51.460;5.710;2024-03-29T13:42:36;16.60;99.90
33023;DHT22;19390;51.460;5.710;2024-03-29T13:45:03;16.40;99.90
33023;DHT22;19390;51.460;5.710;2024-03-29T13:47:29;16.70;99.90
33023;DHT22;19390;51.460;5.710;2024-03-29T13:49:55;18.00;99.90
33023;DHT22;19390;51.460;5.710;2024-03-29T13:52:22;17.70;99.90
33023;DHT22;19390;51.460;5.710;2024-03-29T13:54:48;17.00;99.90
33023;DHT22;19390;51.460;5.710;2024-03-29T13:57:14;16.50;99.90
33023;DHT22;19390;51.460;5.710;2024-03-29T13:59:40;16.40;99.90
33023;DHT22;19390;51.460;5.710;2024-03-29T14:02:09;16.30;99.90
33023;DHT22;19390;51.460;5.710;2024-03-29T14:04:35;16.90;99.90
33023;DHT22;19390;51.460;5.710;2024-03-29T14:07:01;17.00;99.90
33023;DHT22;19390;51.460;5.710;2024-03-29T14:09:28;17.40;99.90
33023;DHT22;19390;51.460;5.710;2024-03-29T14:11:54;17.30;99.90
33023;DHT22;19390;51.460;5.710;2024-03-29T14:14:20;17.40;99.90
33023;DHT22;19390;51.460;5.710;2024-03-29T14:16:45;17.20;99.90
33023;DHT22;19390;51.460;5.710;2024-03-29T14:19:11;16.80;99.90
33023;DHT22;19390;51.460;5.710;2024-03-29T14:21:36;17.00;99.90
33023;DHT22;19390;51.460;5.710;2024-03-29T14:24:02;17.20;99.90
33023;DHT22;19390;51.460;5.710;2024-03-29T14:26:28;17.70;99.90
33023;DHT22;19390;51.460;5.710;2024-03-29T14:28:53;17.50;99.90
33023;DHT22;19390;51.460;5.710;2024-03-29T14:31:19;17.40;99.90
33023;DHT22;19390;51.460;5.710;2024-03-29T14:33:45;17.60;99.90
33023;DHT22;19390;51.460;5.710;2024-03-29T14:36:12;17.10;99.90
33023;DHT22;19390;51.460;5.710;2024-03-29T14:38:37;17.00;99.90
33023;DHT22;19390;51.460;5.710;2024-03-29T14:41:03;17.30;99.90
33023;DHT22;19390;51.460;5.710;2024-03-29T14:43:29;17.50;99.90
33023;DHT22;19390;51.460;5.710;2024-03-29T14:45:55;17.10;99.90
33023;DHT22;19390;51.460;5.710;2024-03-29T14:48:20;16.70;99.90
33023;DHT22;19390;51.460;5.710;2024-03-29T14:50:46;16.40;99.90
33023;DHT22;19390;51.460;5.710;2024-03-29T14:53:12;16.30;99.90
33023;DHT22;19390;51.460;5.710;2024-03-29T14:55:37;16.20;99.90
33023;DHT22;19390;51.460;5.710;2024-03-29T14:58:06;16.00;99.90
33023;DHT22;19390;51.460;5.710;2024-03-29T15:00:32;16.00;99.90
33023;DHT22;19390;51.460;5.710;2024-03-29T15:02:58;15.80;99.90
33023;DHT22;19390;51.460;5.710;2024-03-29T15:05:24;15.80;99.90
33023;DHT22;19390;51.460;5.710;2024-03-29T15:07:51;15.70;99.90
33023;DHT22;19390;51.460;5.710;2024-03-29T15:10:17;15.60;99.90
33023;DHT22;19390;51.460;5.710;2024-03-29T15:12:44;15.60;99.90
33023;DHT22;19390;51.460;5.710;2024-03-29T15:15:12;15.50;99.90
33023;DHT22;19390;51.460;5.710;2024-03-29T15:17:38;15.40;99.90
33023;DHT22;19390;51.460;5.710;2024-03-29T15:20:04;15.40;99.90
33023;DHT22;19390;51.460;5.710;2024-03-29T15:22:31;15.40;99.90
33023;DHT22;19390;51.460;5.710;2024-03-29T15:24:58;15.40;99.90
33023;DHT22;19390;51.460;5.710;2024-03-29T15:27:24;15.50;99.90
33023;DHT22;19390;51.460;5.710;2024-03-29T15:30:00;15.70;99.90
33023;DHT22;19390;51.460;5.710;2024-03-29T15:32:25;16.00;99.90
33023;DHT22;19390;51.460;5.710;2024-03-29T15:34:56;15.90;99.90
33023;DHT22;19390;51.460;5.710;2024-03-29T15:37:21;15.90;99.90
33023;DHT22;19390;51.460;5.710;2024-03-29T15:39:50;15.80;99.90
33023;DHT22;19390;51.460;5.710;2024-03-29T15:42:15;15.90;99.90
33023;DHT22;19390;51.460;5.710;2024-03-29T15:44:41;15.90;99.90
33023;DHT22;19390;51.460;5.710;2024-03-29T15:47:06;15.80;99.90